Main page
METAR-TAF:

METAR-TAF

Airports :

Ras Al Khaimah International Airport

Ras al-Khaimah, United Arab Emirates

latitude: 25-37N, longitude: 055-56E, elevation: 31 m

Current weather observation

The report was made 37 minutes ago, at 21:00 UTC
Wind 4 kt from the North, varying between North/Northwest and Northeast
Temperature 35°C
Humidity 63%
Pressure 995 hPa
Visibility 10 km or more
no clouds below 1500 m and no cumulonimbus

METAR: OMRK 052100Z 01004KT 340V050 CAVOK 35/27 Q0995 A2939

Time: 01:37 (21:37 UTC)

Forecast

The report was made 4 hours and 37 minutes ago, at 17:00 UTC
Forecast valid from 05 at 18 UTC to 07 at 00 UTC
Wind 7 kt from the East
Visibility: 8000 m
Becoming
from 06 at 07 UTC to 06 at 09 UTC
Wind 12 kt from the North/Northwest
Becoming
from 06 at 15 UTC to 06 at 17 UTC
Wind 2 kt from variable directions

TAF: OMRK 051700Z 0518/0700 10007KT 8000 NSC BECMG 0607/0609 34012KT BECMG 0615/0617 VRB02KT

Weather observations and forecasts of more than 4000 airports (METAR and TAF reports).

The available stations are represented by yellow and red dots on the map.

Hover mouse over dot to see the name of the station.

Then click to see weather observations and forecasts.

To change the map : click on the green buttons with a black cross to zoom in, on the green button with a dash to zoom out, or on the green arrows for adjacent maps.


METAR-TAF: